sensor_id;sensor_type;location;lat;lon;timestamp;P1;durP1;ratioP1;P2;durP2;ratioP2
10902;SDS011;5504;47.312;11.060;2024-01-25T00:01:12;0.30;;;0.10;;
10902;SDS011;5504;47.312;11.060;2024-01-25T00:03:38;0.30;;;0.30;;
10902;SDS011;5504;47.312;11.060;2024-01-25T00:06:04;0.30;;;0.30;;
10902;SDS011;5504;47.312;11.060;2024-01-25T00:08:31;0.30;;;0.30;;
10902;SDS011;5504;47.312;11.060;2024-01-25T00:10:56;0.27;;;0.27;;
10902;SDS011;5504;47.312;11.060;2024-01-25T00:13:22;0.40;;;0.40;;
10902;SDS011;5504;47.312;11.060;2024-01-25T00:15:48;1.33;;;0.40;;
10902;SDS011;5504;47.312;11.060;2024-01-25T00:18:14;0.33;;;0.33;;
10902;SDS011;5504;47.312;11.060;2024-01-25T00:20:39;0.40;;;0.40;;
10902;SDS011;5504;47.312;11.060;2024-01-25T00:23:06;0.67;;;0.60;;
10902;SDS011;5504;47.312;11.060;2024-01-25T00:25:32;0.73;;;0.60;;
10902;SDS011;5504;47.312;11.060;2024-01-25T00:27:58;0.50;;;0.50;;
10902;SDS011;5504;47.312;11.060;2024-01-25T00:30:23;0.60;;;0.60;;
10902;SDS011;5504;47.312;11.060;2024-01-25T00:32:49;0.80;;;0.80;;
10902;SDS011;5504;47.312;11.060;2024-01-25T00:35:15;0.97;;;0.87;;
10902;SDS011;5504;47.312;11.060;2024-01-25T00:37:41;1.37;;;1.00;;
10902;SDS011;5504;47.312;11.060;2024-01-25T00:40:07;1.10;;;1.10;;
10902;SDS011;5504;47.312;11.060;2024-01-25T00:42:38;0.87;;;0.87;;
10902;SDS011;5504;47.312;11.060;2024-01-25T00:45:07;0.80;;;0.80;;
10902;SDS011;5504;47.312;11.060;2024-01-25T00:47:33;1.17;;;0.80;;
10902;SDS011;5504;47.312;11.060;2024-01-25T00:49:59;0.80;;;0.80;;
10902;SDS011;5504;47.312;11.060;2024-01-25T00:52:25;1.20;;;1.10;;
10902;SDS011;5504;47.312;11.060;2024-01-25T00:54:51;0.90;;;0.90;;
10902;SDS011;5504;47.312;11.060;2024-01-25T00:57:17;0.97;;;0.90;;
10902;SDS011;5504;47.312;11.060;2024-01-25T00:59:43;1.23;;;1.00;;
10902;SDS011;5504;47.312;11.060;2024-01-25T01:02:10;1.20;;;1.00;;
10902;SDS011;5504;47.312;11.060;2024-01-25T01:04:37;1.67;;;0.90;;
10902;SDS011;5504;47.312;11.060;2024-01-25T01:07:04;0.70;;;0.70;;
10902;SDS011;5504;47.312;11.060;2024-01-25T01:09:30;0.80;;;0.80;;
10902;SDS011;5504;47.312;11.060;2024-01-25T01:11:56;0.80;;;0.70;;
10902;SDS011;5504;47.312;11.060;2024-01-25T01:14:21;0.70;;;0.70;;
10902;SDS011;5504;47.312;11.060;2024-01-25T01:16:47;0.70;;;0.70;;
10902;SDS011;5504;47.312;11.060;2024-01-25T01:19:13;0.70;;;0.70;;
10902;SDS011;5504;47.312;11.060;2024-01-25T01:21:38;0.80;;;0.60;;
10902;SDS011;5504;47.312;11.060;2024-01-25T01:24:08;1.77;;;0.87;;
10902;SDS011;5504;47.312;11.060;2024-01-25T01:26:37;1.07;;;1.00;;
10902;SDS011;5504;47.312;11.060;2024-01-25T01:29:03;1.00;;;0.90;;
10902;SDS011;5504;47.312;11.060;2024-01-25T01:31:29;1.10;;;1.00;;
10902;SDS011;5504;47.312;11.060;2024-01-25T01:33:55;1.27;;;1.10;;
10902;SDS011;5504;47.312;11.060;2024-01-25T01:36:21;1.23;;;1.07;;
10902;SDS011;5504;47.312;11.060;2024-01-25T01:38:47;1.13;;;0.77;;
10902;SDS011;5504;47.312;11.060;2024-01-25T01:41:13;1.00;;;0.90;;
10902;SDS011;5504;47.312;11.060;2024-01-25T01:43:39;1.20;;;1.10;;
10902;SDS011;5504;47.312;11.060;2024-01-25T01:46:12;1.90;;;1.47;;
10902;SDS011;5504;47.312;11.060;2024-01-25T01:48:51;2.60;;;2.40;;
10902;SDS011;5504;47.312;11.060;2024-01-25T01:51:16;3.37;;;2.70;;
10902;SDS011;5504;47.312;11.060;2024-01-25T01:53:42;4.70;;;4.30;;
10902;SDS011;5504;47.312;11.060;2024-01-25T01:56:08;5.60;;;4.70;;
10902;SDS011;5504;47.312;11.060;2024-01-25T01:58:35;5.57;;;4.90;;
10902;SDS011;5504;47.312;11.060;2024-01-25T02:01:00;4.87;;;4.47;;
10902;SDS011;5504;47.312;11.060;2024-01-25T02:03:27;4.80;;;4.27;;
10902;SDS011;5504;47.312;11.060;2024-01-25T02:05:53;4.47;;;3.93;;
10902;SDS011;5504;47.312;11.060;2024-01-25T02:08:19;4.00;;;3.70;;
10902;SDS011;5504;47.312;11.060;2024-01-25T02:10:45;4.27;;;3.90;;
10902;SDS011;5504;47.312;11.060;2024-01-25T02:13:11;3.73;;;3.27;;
10902;SDS011;5504;47.312;11.060;2024-01-25T02:15:37;3.47;;;3.17;;
10902;SDS011;5504;47.312;11.060;2024-01-25T02:18:02;3.40;;;3.10;;
10902;SDS011;5504;47.312;11.060;2024-01-25T02:20:28;2.70;;;2.50;;
10902;SDS011;5504;47.312;11.060;2024-01-25T02:22:54;3.67;;;3.37;;
10902;SDS011;5504;47.312;11.060;2024-01-25T02:25:19;3.50;;;3.20;;
10902;SDS011;5504;47.312;11.060;2024-01-25T02:27:45;3.33;;;3.03;;
10902;SDS011;5504;47.312;11.060;2024-01-25T02:30:11;2.93;;;2.50;;
10902;SDS011;5504;47.312;11.060;2024-01-25T02:32:37;2.63;;;2.40;;
10902;SDS011;5504;47.312;11.060;2024-01-25T02:35:02;2.43;;;1.80;;
10902;SDS011;5504;47.312;11.060;2024-01-25T02:37:28;1.60;;;1.50;;
10902;SDS011;5504;47.312;11.060;2024-01-25T02:39:54;1.77;;;1.67;;
10902;SDS011;5504;47.312;11.060;2024-01-25T02:42:20;1.93;;;1.57;;
10902;SDS011;5504;47.312;11.060;2024-01-25T02:44:45;2.60;;;1.60;;
10902;SDS011;5504;47.312;11.060;2024-01-25T02:47:11;1.60;;;1.43;;
10902;SDS011;5504;47.312;11.060;2024-01-25T02:49:37;1.17;;;1.07;;
10902;SDS011;5504;47.312;11.060;2024-01-25T02:52:03;1.10;;;1.00;;
10902;SDS011;5504;47.312;11.060;2024-01-25T02:54:29;1.00;;;1.00;;
10902;SDS011;5504;47.312;11.060;2024-01-25T02:56:54;1.10;;;0.90;;
10902;SDS011;5504;47.312;11.060;2024-01-25T02:59:20;1.10;;;1.00;;
10902;SDS011;5504;47.312;11.060;2024-01-25T03:01:46;1.10;;;1.00;;
10902;SDS011;5504;47.312;11.060;2024-01-25T03:04:12;1.00;;;0.90;;
10902;SDS011;5504;47.312;11.060;2024-01-25T03:06:38;1.47;;;0.90;;
10902;SDS011;5504;47.312;11.060;2024-01-25T03:09:04;0.90;;;0.60;;
10902;SDS011;5504;47.312;11.060;2024-01-25T03:11:30;0.83;;;0.70;;
10902;SDS011;5504;47.312;11.060;2024-01-25T03:13:55;0.70;;;0.70;;
10902;SDS011;5504;47.312;11.060;2024-01-25T03:16:22;0.70;;;0.70;;
10902;SDS011;5504;47.312;11.060;2024-01-25T03:18:48;0.70;;;0.70;;
10902;SDS011;5504;47.312;11.060;2024-01-25T03:21:13;1.27;;;0.70;;
10902;SDS011;5504;47.312;11.060;2024-01-25T03:23:39;0.60;;;0.60;;
10902;SDS011;5504;47.312;11.060;2024-01-25T03:26:05;0.73;;;0.70;;
10902;SDS011;5504;47.312;11.060;2024-01-25T03:28:31;1.13;;;0.70;;
10902;SDS011;5504;47.312;11.060;2024-01-25T03:30:59;0.63;;;0.60;;
10902;SDS011;5504;47.312;11.060;2024-01-25T03:33:25;0.50;;;0.50;;
10902;SDS011;5504;47.312;11.060;2024-01-25T03:35:52;0.50;;;0.50;;
10902;SDS011;5504;47.312;11.060;2024-01-25T03:38:17;0.50;;;0.50;;
10902;SDS011;5504;47.312;11.060;2024-01-25T03:40:43;0.60;;;0.60;;
10902;SDS011;5504;47.312;11.060;2024-01-25T03:43:09;0.60;;;0.60;;
10902;SDS011;5504;47.312;11.060;2024-01-25T03:45:35;0.50;;;0.50;;
10902;SDS011;5504;47.312;11.060;2024-01-25T03:48:01;0.70;;;0.60;;
10902;SDS011;5504;47.312;11.060;2024-01-25T03:50:27;2.00;;;0.60;;
10902;SDS011;5504;47.312;11.060;2024-01-25T03:52:53;0.83;;;0.70;;
10902;SDS011;5504;47.312;11.060;2024-01-25T03:55:18;1.30;;;0.80;;
10902;SDS011;5504;47.312;11.060;2024-01-25T03:57:44;2.03;;;0.70;;
10902;SDS011;5504;47.312;11.060;2024-01-25T04:00:10;1.17;;;0.60;;
10902;SDS011;5504;47.312;11.060;2024-01-25T04:02:37;0.60;;;0.60;;
10902;SDS011;5504;47.312;11.060;2024-01-25T04:05:03;0.83;;;0.80;;
10902;SDS011;5504;47.312;11.060;2024-01-25T04:07:29;0.90;;;0.90;;
10902;SDS011;5504;47.312;11.060;2024-01-25T04:09:55;0.80;;;0.80;;
10902;SDS011;5504;47.312;11.060;2024-01-25T04:12:21;0.70;;;0.70;;
10902;SDS011;5504;47.312;11.060;2024-01-25T04:14:46;0.60;;;0.60;;
10902;SDS011;5504;47.312;11.060;2024-01-25T04:17:12;1.30;;;0.80;;
10902;SDS011;5504;47.312;11.060;2024-01-25T04:19:38;1.47;;;0.60;;
10902;SDS011;5504;47.312;11.060;2024-01-25T04:22:03;0.70;;;0.70;;
10902;SDS011;5504;47.312;11.060;2024-01-25T04:24:29;0.53;;;0.53;;
10902;SDS011;5504;47.312;11.060;2024-01-25T04:26:55;0.60;;;0.60;;
10902;SDS011;5504;47.312;11.060;2024-01-25T04:29:21;0.80;;;0.73;;
10902;SDS011;5504;47.312;11.060;2024-01-25T04:31:47;0.70;;;0.70;;
10902;SDS011;5504;47.312;11.060;2024-01-25T04:34:13;0.60;;;0.60;;
10902;SDS011;5504;47.312;11.060;2024-01-25T04:36:40;0.70;;;0.70;;
10902;SDS011;5504;47.312;11.060;2024-01-25T04:39:06;3.10;;;2.30;;
10902;SDS011;5504;47.312;11.060;2024-01-25T04:41:31;1.83;;;1.40;;
10902;SDS011;5504;47.312;11.060;2024-01-25T04:43:57;1.37;;;0.97;;
10902;SDS011;5504;47.312;11.060;2024-01-25T04:46:23;1.13;;;0.80;;
10902;SDS011;5504;47.312;11.060;2024-01-25T04:48:49;1.20;;;1.10;;
10902;SDS011;5504;47.312;11.060;2024-01-25T04:51:15;0.93;;;0.73;;
10902;SDS011;5504;47.312;11.060;2024-01-25T04:53:42;1.63;;;1.10;;
10902;SDS011;5504;47.312;11.060;2024-01-25T04:56:08;1.20;;;0.90;;
10902;SDS011;5504;47.312;11.060;2024-01-25T04:58:34;2.17;;;1.40;;
10902;SDS011;5504;47.312;11.060;2024-01-25T05:01:00;1.23;;;1.10;;
10902;SDS011;5504;47.312;11.060;2024-01-25T05:03:26;1.00;;;0.93;;
10902;SDS011;5504;47.312;11.060;2024-01-25T05:05:52;1.07;;;1.00;;
10902;SDS011;5504;47.312;11.060;2024-01-25T05:08:17;1.33;;;0.80;;
10902;SDS011;5504;47.312;11.060;2024-01-25T05:10:43;1.73;;;0.90;;
10902;SDS011;5504;47.312;11.060;2024-01-25T05:13:09;0.70;;;0.70;;
10902;SDS011;5504;47.312;11.060;2024-01-25T05:15:35;0.63;;;0.63;;
10902;SDS011;5504;47.312;11.060;2024-01-25T05:18:03;0.80;;;0.70;;
10902;SDS011;5504;47.312;11.060;2024-01-25T05:20:30;0.93;;;0.80;;
10902;SDS011;5504;47.312;11.060;2024-01-25T05:22:59;1.63;;;1.03;;
10902;SDS011;5504;47.312;11.060;2024-01-25T05:25:26;1.00;;;0.90;;
10902;SDS011;5504;47.312;11.060;2024-01-25T05:27:52;1.80;;;1.20;;
10902;SDS011;5504;47.312;11.060;2024-01-25T05:30:18;2.03;;;1.40;;
10902;SDS011;5504;47.312;11.060;2024-01-25T05:32:44;1.63;;;1.30;;
10902;SDS011;5504;47.312;11.060;2024-01-25T05:35:11;1.30;;;1.17;;
10902;SDS011;5504;47.312;11.060;2024-01-25T05:37:37;1.47;;;1.00;;
10902;SDS011;5504;47.312;11.060;2024-01-25T05:40:02;0.70;;;0.70;;
10902;SDS011;5504;47.312;11.060;2024-01-25T05:42:28;0.83;;;0.80;;
10902;SDS011;5504;47.312;11.060;2024-01-25T05:44:54;1.37;;;1.00;;
10902;SDS011;5504;47.312;11.060;2024-01-25T05:47:20;1.40;;;1.10;;
10902;SDS011;5504;47.312;11.060;2024-01-25T05:49:46;1.77;;;1.10;;
10902;SDS011;5504;47.312;11.060;2024-01-25T05:52:12;1.17;;;1.00;;
10902;SDS011;5504;47.312;11.060;2024-01-25T05:54:38;1.20;;;1.10;;
10902;SDS011;5504;47.312;11.060;2024-01-25T05:57:04;1.80;;;1.13;;
10902;SDS011;5504;47.312;11.060;2024-01-25T05:59:29;0.90;;;0.90;;
10902;SDS011;5504;47.312;11.060;2024-01-25T06:01:55;1.33;;;0.93;;
10902;SDS011;5504;47.312;11.060;2024-01-25T06:04:21;0.90;;;0.80;;
10902;SDS011;5504;47.312;11.060;2024-01-25T06:06:47;1.10;;;1.10;;
10902;SDS011;5504;47.312;11.060;2024-01-25T06:09:12;1.40;;;1.30;;
10902;SDS011;5504;47.312;11.060;2024-01-25T06:11:40;1.77;;;1.23;;
10902;SDS011;5504;47.312;11.060;2024-01-25T06:14:06;1.30;;;1.20;;
10902;SDS011;5504;47.312;11.060;2024-01-25T06:16:32;1.57;;;1.20;;
10902;SDS011;5504;47.312;11.060;2024-01-25T06:18:58;2.90;;;2.70;;
10902;SDS011;5504;47.312;11.060;2024-01-25T06:21:25;3.03;;;2.30;;
10902;SDS011;5504;47.312;11.060;2024-01-25T06:23:51;2.57;;;1.60;;
10902;SDS011;5504;47.312;11.060;2024-01-25T06:26:16;2.10;;;1.40;;
10902;SDS011;5504;47.312;11.060;2024-01-25T06:28:42;2.10;;;1.90;;
10902;SDS011;5504;47.312;11.060;2024-01-25T06:31:08;3.17;;;1.83;;
10902;SDS011;5504;47.312;11.060;2024-01-25T06:33:33;1.53;;;1.43;;
10902;SDS011;5504;47.312;11.060;2024-01-25T06:35:59;1.70;;;1.50;;
10902;SDS011;5504;47.312;11.060;2024-01-25T06:38:25;1.60;;;1.50;;
10902;SDS011;5504;47.312;11.060;2024-01-25T06:40:51;2.10;;;1.60;;
10902;SDS011;5504;47.312;11.060;2024-01-25T06:43:17;1.70;;;1.60;;
10902;SDS011;5504;47.312;11.060;2024-01-25T06:45:42;1.53;;;1.43;;
10902;SDS011;5504;47.312;11.060;2024-01-25T06:48:08;2.43;;;1.60;;
10902;SDS011;5504;47.312;11.060;2024-01-25T06:50:34;2.27;;;1.80;;
10902;SDS011;5504;47.312;11.060;2024-01-25T06:53:00;1.83;;;1.73;;
10902;SDS011;5504;47.312;11.060;2024-01-25T06:55:26;1.80;;;1.70;;
10902;SDS011;5504;47.312;11.060;2024-01-25T06:57:51;1.93;;;1.40;;
10902;SDS011;5504;47.312;11.060;2024-01-25T07:00:17;1.50;;;1.40;;
10902;SDS011;5504;47.312;11.060;2024-01-25T07:02:45;1.40;;;1.30;;
10902;SDS011;5504;47.312;11.060;2024-01-25T07:05:11;1.60;;;1.50;;
10902;SDS011;5504;47.312;11.060;2024-01-25T07:07:37;2.80;;;1.60;;
10902;SDS011;5504;47.312;11.060;2024-01-25T07:10:04;1.97;;;1.37;;
10902;SDS011;5504;47.312;11.060;2024-01-25T07:12:31;1.70;;;1.40;;
10902;SDS011;5504;47.312;11.060;2024-01-25T07:14:57;2.00;;;1.30;;
10902;SDS011;5504;47.312;11.060;2024-01-25T07:17:23;2.00;;;1.40;;
10902;SDS011;5504;47.312;11.060;2024-01-25T07:19:49;2.30;;;1.83;;
10902;SDS011;5504;47.312;11.060;2024-01-25T07:22:14;3.37;;;2.30;;
10902;SDS011;5504;47.312;11.060;2024-01-25T07:24:42;10.37;;;9.17;;
10902;SDS011;5504;47.312;11.060;2024-01-25T07:27:08;7.80;;;7.00;;
10902;SDS011;5504;47.312;11.060;2024-01-25T07:29:35;5.37;;;4.60;;
10902;SDS011;5504;47.312;11.060;2024-01-25T07:32:02;6.63;;;6.03;;
10902;SDS011;5504;47.312;11.060;2024-01-25T07:34:28;5.43;;;4.93;;
10902;SDS011;5504;47.312;11.060;2024-01-25T07:36:53;4.30;;;4.00;;
10902;SDS011;5504;47.312;11.060;2024-01-25T07:39:19;4.40;;;3.83;;
10902;SDS011;5504;47.312;11.060;2024-01-25T07:41:45;3.57;;;3.27;;
10902;SDS011;5504;47.312;11.060;2024-01-25T07:44:12;2.93;;;2.70;;
10902;SDS011;5504;47.312;11.060;2024-01-25T07:46:38;5.27;;;2.60;;
10902;SDS011;5504;47.312;11.060;2024-01-25T07:49:04;3.87;;;2.93;;
10902;SDS011;5504;47.312;11.060;2024-01-25T07:51:30;3.20;;;2.80;;
10902;SDS011;5504;47.312;11.060;2024-01-25T07:53:56;3.93;;;3.30;;
10902;SDS011;5504;47.312;11.060;2024-01-25T07:56:21;4.93;;;4.43;;
10902;SDS011;5504;47.312;11.060;2024-01-25T07:58:50;4.60;;;4.20;;
10902;SDS011;5504;47.312;11.060;2024-01-25T08:01:19;3.60;;;3.27;;
10902;SDS011;5504;47.312;11.060;2024-01-25T08:03:46;4.10;;;3.70;;
10902;SDS011;5504;47.312;11.060;2024-01-25T08:06:12;4.27;;;3.80;;
10902;SDS011;5504;47.312;11.060;2024-01-25T08:08:38;10.93;;;9.77;;
10902;SDS011;5504;47.312;11.060;2024-01-25T08:11:04;8.60;;;7.70;;
10902;SDS011;5504;47.312;11.060;2024-01-25T08:13:30;11.33;;;8.93;;
10902;SDS011;5504;47.312;11.060;2024-01-25T08:15:56;17.87;;;13.63;;
10902;SDS011;5504;47.312;11.060;2024-01-25T08:18:22;15.63;;;13.23;;
10902;SDS011;5504;47.312;11.060;2024-01-25T08:20:49;13.87;;;10.80;;
10902;SDS011;5504;47.312;11.060;2024-01-25T08:23:15;15.07;;;12.17;;
10902;SDS011;5504;47.312;11.060;2024-01-25T08:25:41;20.03;;;15.67;;
10902;SDS011;5504;47.312;11.060;2024-01-25T08:28:07;16.03;;;12.90;;
10902;SDS011;5504;47.312;11.060;2024-01-25T08:30:33;15.80;;;12.63;;
10902;SDS011;5504;47.312;11.060;2024-01-25T08:32:59;13.80;;;11.10;;
10902;SDS011;5504;47.312;11.060;2024-01-25T08:35:25;13.93;;;10.13;;
10902;SDS011;5504;47.312;11.060;2024-01-25T08:37:50;12.10;;;9.53;;
10902;SDS011;5504;47.312;11.060;2024-01-25T08:40:16;10.53;;;9.17;;
10902;SDS011;5504;47.312;11.060;2024-01-25T08:42:42;13.40;;;11.23;;
10902;SDS011;5504;47.312;11.060;2024-01-25T08:45:08;10.73;;;8.33;;
10902;SDS011;5504;47.312;11.060;2024-01-25T08:47:37;10.47;;;8.50;;
10902;SDS011;5504;47.312;11.060;2024-01-25T08:50:03;11.83;;;8.50;;
10902;SDS011;5504;47.312;11.060;2024-01-25T08:52:31;14.37;;;12.87;;
10902;SDS011;5504;47.312;11.060;2024-01-25T08:54:57;13.00;;;10.77;;
10902;SDS011;5504;47.312;11.060;2024-01-25T08:57:23;10.00;;;8.37;;
10902;SDS011;5504;47.312;11.060;2024-01-25T08:59:49;10.93;;;8.33;;
10902;SDS011;5504;47.312;11.060;2024-01-25T09:02:14;8.93;;;7.83;;
10902;SDS011;5504;47.312;11.060;2024-01-25T09:04:40;9.60;;;8.23;;
10902;SDS011;5504;47.312;11.060;2024-01-25T09:07:08;11.50;;;8.60;;
10902;SDS011;5504;47.312;11.060;2024-01-25T09:09:34;8.47;;;7.53;;
10902;SDS011;5504;47.312;11.060;2024-01-25T09:12:00;9.00;;;8.10;;
10902;SDS011;5504;47.312;11.060;2024-01-25T09:14:25;12.50;;;10.63;;
10902;SDS011;5504;47.312;11.060;2024-01-25T09:16:51;8.90;;;7.97;;
10902;SDS011;5504;47.312;11.060;2024-01-25T09:19:17;7.67;;;6.87;;
10902;SDS011;5504;47.312;11.060;2024-01-25T09:21:42;7.90;;;7.10;;
10902;SDS011;5504;47.312;11.060;2024-01-25T09:24:08;8.13;;;7.33;;
10902;SDS011;5504;47.312;11.060;2024-01-25T09:26:34;7.83;;;6.80;;
10902;SDS011;5504;47.312;11.060;2024-01-25T09:29:00;7.30;;;6.60;;
10902;SDS011;5504;47.312;11.060;2024-01-25T09:31:25;9.53;;;8.27;;
10902;SDS011;5504;47.312;11.060;2024-01-25T09:33:51;7.93;;;7.13;;
10902;SDS011;5504;47.312;11.060;2024-01-25T09:36:17;7.00;;;6.03;;
10902;SDS011;5504;47.312;11.060;2024-01-25T09:38:43;6.40;;;5.80;;
10902;SDS011;5504;47.312;11.060;2024-01-25T09:41:09;6.10;;;5.50;;
10902;SDS011;5504;47.312;11.060;2024-01-25T09:43:35;6.17;;;5.57;;
10902;SDS011;5504;47.312;11.060;2024-01-25T09:46:01;8.20;;;6.10;;
10902;SDS011;5504;47.312;11.060;2024-01-25T09:48:27;6.07;;;5.47;;
10902;SDS011;5504;47.312;11.060;2024-01-25T09:50:54;6.53;;;5.90;;
10902;SDS011;5504;47.312;11.060;2024-01-25T09:53:21;6.20;;;5.60;;
10902;SDS011;5504;47.312;11.060;2024-01-25T09:55:51;6.83;;;5.80;;
10902;SDS011;5504;47.312;11.060;2024-01-25T09:58:22;6.50;;;5.63;;
10902;SDS011;5504;47.312;11.060;2024-01-25T10:00:50;7.23;;;5.90;;
10902;SDS011;5504;47.312;11.060;2024-01-25T10:03:16;6.70;;;5.90;;
10902;SDS011;5504;47.312;11.060;2024-01-25T10:05:42;6.43;;;5.83;;
10902;SDS011;5504;47.312;11.060;2024-01-25T10:08:12;6.67;;;6.03;;
10902;SDS011;5504;47.312;11.060;2024-01-25T10:10:38;6.70;;;5.97;;
10902;SDS011;5504;47.312;11.060;2024-01-25T10:13:04;7.50;;;6.27;;
10902;SDS011;5504;47.312;11.060;2024-01-25T10:15:30;6.90;;;4.60;;
10902;SDS011;5504;47.312;11.060;2024-01-25T10:17:56;5.30;;;4.73;;
10902;SDS011;5504;47.312;11.060;2024-01-25T10:20:22;6.10;;;5.00;;
10902;SDS011;5504;47.312;11.060;2024-01-25T10:22:50;5.37;;;4.47;;
10902;SDS011;5504;47.312;11.060;2024-01-25T10:25:17;6.33;;;4.90;;
10902;SDS011;5504;47.312;11.060;2024-01-25T10:27:43;5.43;;;4.90;;
10902;SDS011;5504;47.312;11.060;2024-01-25T10:30:09;5.90;;;5.30;;
10902;SDS011;5504;47.312;11.060;2024-01-25T10:32:36;9.73;;;6.40;;
10902;SDS011;5504;47.312;11.060;2024-01-25T10:35:02;7.73;;;6.93;;
10902;SDS011;5504;47.312;11.060;2024-01-25T10:37:28;8.70;;;7.47;;
10902;SDS011;5504;47.312;11.060;2024-01-25T10:39:57;8.87;;;7.97;;
10902;SDS011;5504;47.312;11.060;2024-01-25T10:42:23;9.00;;;7.60;;
10902;SDS011;5504;47.312;11.060;2024-01-25T10:44:49;6.77;;;6.17;;
10902;SDS011;5504;47.312;11.060;2024-01-25T10:47:15;7.93;;;6.47;;
10902;SDS011;5504;47.312;11.060;2024-01-25T10:49:41;6.63;;;6.03;;
10902;SDS011;5504;47.312;11.060;2024-01-25T10:52:07;6.00;;;5.40;;
10902;SDS011;5504;47.312;11.060;2024-01-25T10:54:36;5.70;;;5.20;;
10902;SDS011;5504;47.312;11.060;2024-01-25T10:57:02;6.77;;;6.03;;
10902;SDS011;5504;47.312;11.060;2024-01-25T10:59:30;6.67;;;5.53;;
10902;SDS011;5504;47.312;11.060;2024-01-25T11:01:56;6.57;;;5.77;;
10902;SDS011;5504;47.312;11.060;2024-01-25T11:04:22;6.63;;;5.93;;
10902;SDS011;5504;47.312;11.060;2024-01-25T11:06:49;6.17;;;5.57;;
10902;SDS011;5504;47.312;11.060;2024-01-25T11:09:18;6.43;;;5.83;;
10902;SDS011;5504;47.312;11.060;2024-01-25T11:11:46;6.30;;;5.50;;
10902;SDS011;5504;47.312;11.060;2024-01-25T11:14:16;6.20;;;5.60;;
10902;SDS011;5504;47.312;11.060;2024-01-25T11:16:42;5.90;;;5.30;;
10902;SDS011;5504;47.312;11.060;2024-01-25T11:19:21;6.30;;;5.53;;
10902;SDS011;5504;47.312;11.060;2024-01-25T11:21:48;6.07;;;5.47;;
10902;SDS011;5504;47.312;11.060;2024-01-25T11:24:23;5.53;;;5.03;;
10902;SDS011;5504;47.312;11.060;2024-01-25T11:26:54;5.63;;;5.13;;
10902;SDS011;5504;47.312;11.060;2024-01-25T11:29:20;6.10;;;5.50;;
10902;SDS011;5504;47.312;11.060;2024-01-25T11:31:47;5.57;;;4.97;;
10902;SDS011;5504;47.312;11.060;2024-01-25T11:34:14;5.70;;;5.10;;
10902;SDS011;5504;47.312;11.060;2024-01-25T11:36:42;36.43;;;26.47;;
10902;SDS011;5504;47.312;11.060;2024-01-25T11:39:11;6.70;;;6.00;;
10902;SDS011;5504;47.312;11.060;2024-01-25T11:41:37;75.57;;;47.80;;
10902;SDS011;5504;47.312;11.060;2024-01-25T11:44:04;18.93;;;14.80;;
10902;SDS011;5504;47.312;11.060;2024-01-25T11:46:30;13.13;;;11.53;;
10902;SDS011;5504;47.312;11.060;2024-01-25T11:48:57;12.23;;;11.00;;
10902;SDS011;5504;47.312;11.060;2024-01-25T11:51:24;12.07;;;10.77;;
10902;SDS011;5504;47.312;11.060;2024-01-25T11:53:50;12.17;;;10.87;;
10902;SDS011;5504;47.312;11.060;2024-01-25T11:56:49;13.23;;;11.97;;
10902;SDS011;5504;47.312;11.060;2024-01-25T11:59:08;15.70;;;14.10;;
10902;SDS011;5504;47.312;11.060;2024-01-25T12:01:35;11.30;;;9.30;;
10902;SDS011;5504;47.312;11.060;2024-01-25T12:04:01;11.53;;;9.70;;
10902;SDS011;5504;47.312;11.060;2024-01-25T12:06:27;13.67;;;11.23;;
10902;SDS011;5504;47.312;11.060;2024-01-25T12:08:53;12.73;;;11.23;;
10902;SDS011;5504;47.312;11.060;2024-01-25T12:11:20;12.90;;;10.17;;
10902;SDS011;5504;47.312;11.060;2024-01-25T12:13:47;13.10;;;10.97;;
10902;SDS011;5504;47.312;11.060;2024-01-25T12:16:12;13.67;;;10.87;;
10902;SDS011;5504;47.312;11.060;2024-01-25T12:18:40;13.77;;;10.73;;
10902;SDS011;5504;47.312;11.060;2024-01-25T12:21:07;14.27;;;10.73;;
10902;SDS011;5504;47.312;11.060;2024-01-25T12:23:34;13.23;;;10.73;;
10902;SDS011;5504;47.312;11.060;2024-01-25T12:26:01;9.63;;;8.20;;
10902;SDS011;5504;47.312;11.060;2024-01-25T12:28:31;8.13;;;6.80;;
10902;SDS011;5504;47.312;11.060;2024-01-25T12:31:01;13.40;;;11.73;;
10902;SDS011;5504;47.312;11.060;2024-01-25T12:33:28;7.17;;;6.47;;
10902;SDS011;5504;47.312;11.060;2024-01-25T12:35:54;5.97;;;5.20;;
10902;SDS011;5504;47.312;11.060;2024-01-25T12:38:21;6.67;;;6.00;;
10902;SDS011;5504;47.312;11.060;2024-01-25T12:40:51;5.33;;;4.83;;
10902;SDS011;5504;47.312;11.060;2024-01-25T12:43:17;5.73;;;4.80;;
10902;SDS011;5504;47.312;11.060;2024-01-25T12:45:44;5.50;;;4.87;;
10902;SDS011;5504;47.312;11.060;2024-01-25T12:48:10;6.70;;;4.47;;
10902;SDS011;5504;47.312;11.060;2024-01-25T12:50:36;4.80;;;2.83;;
10902;SDS011;5504;47.312;11.060;2024-01-25T12:53:02;3.37;;;2.60;;
10902;SDS011;5504;47.312;11.060;2024-01-25T12:55:29;4.67;;;3.00;;
10902;SDS011;5504;47.312;11.060;2024-01-25T12:57:56;5.27;;;3.23;;
10902;SDS011;5504;47.312;11.060;2024-01-25T13:00:22;3.40;;;2.77;;
10902;SDS011;5504;47.312;11.060;2024-01-25T13:02:48;3.10;;;2.60;;
10902;SDS011;5504;47.312;11.060;2024-01-25T13:05:14;2.53;;;2.33;;
10902;SDS011;5504;47.312;11.060;2024-01-25T13:07:40;3.60;;;2.60;;
10902;SDS011;5504;47.312;11.060;2024-01-25T13:10:06;3.13;;;2.60;;
10902;SDS011;5504;47.312;11.060;2024-01-25T13:12:33;2.60;;;2.40;;
10902;SDS011;5504;47.312;11.060;2024-01-25T13:14:59;2.27;;;2.07;;
10902;SDS011;5504;47.312;11.060;2024-01-25T13:17:25;2.30;;;2.10;;
10902;SDS011;5504;47.312;11.060;2024-01-25T13:19:52;2.60;;;2.17;;
10902;SDS011;5504;47.312;11.060;2024-01-25T13:22:18;3.23;;;2.30;;
10902;SDS011;5504;47.312;11.060;2024-01-25T13:24:46;2.30;;;2.07;;
10902;SDS011;5504;47.312;11.060;2024-01-25T13:27:12;2.07;;;1.83;;
10902;SDS011;5504;47.312;11.060;2024-01-25T13:29:38;3.30;;;2.20;;
10902;SDS011;5504;47.312;11.060;2024-01-25T13:32:03;2.03;;;1.83;;
10902;SDS011;5504;47.312;11.060;2024-01-25T13:34:29;1.90;;;1.80;;
10902;SDS011;5504;47.312;11.060;2024-01-25T13:36:55;2.07;;;1.80;;
10902;SDS011;5504;47.312;11.060;2024-01-25T13:39:21;2.20;;;2.00;;
10902;SDS011;5504;47.312;11.060;2024-01-25T13:41:47;2.23;;;2.03;;
10902;SDS011;5504;47.312;11.060;2024-01-25T13:44:14;3.83;;;3.10;;
10902;SDS011;5504;47.312;11.060;2024-01-25T13:46:40;3.77;;;2.70;;
10902;SDS011;5504;47.312;11.060;2024-01-25T13:49:05;2.63;;;2.43;;
10902;SDS011;5504;47.312;11.060;2024-01-25T13:51:31;2.47;;;2.27;;
10902;SDS011;5504;47.312;11.060;2024-01-25T13:53:57;2.80;;;2.40;;
10902;SDS011;5504;47.312;11.060;2024-01-25T13:56:22;3.23;;;2.87;;
10902;SDS011;5504;47.312;11.060;2024-01-25T13:58:48;3.73;;;3.37;;
10902;SDS011;5504;47.312;11.060;2024-01-25T14:01:14;3.17;;;2.90;;
10902;SDS011;5504;47.312;11.060;2024-01-25T14:03:40;2.70;;;2.33;;
10902;SDS011;5504;47.312;11.060;2024-01-25T14:06:05;2.77;;;1.93;;
10902;SDS011;5504;47.312;11.060;2024-01-25T14:08:34;3.57;;;2.57;;
10902;SDS011;5504;47.312;11.060;2024-01-25T14:11:03;2.30;;;2.10;;
10902;SDS011;5504;47.312;11.060;2024-01-25T14:13:31;3.00;;;2.60;;
10902;SDS011;5504;47.312;11.060;2024-01-25T14:15:57;2.70;;;2.43;;
10902;SDS011;5504;47.312;11.060;2024-01-25T14:18:24;3.00;;;2.60;;
10902;SDS011;5504;47.312;11.060;2024-01-25T14:20:52;3.33;;;2.90;;
10902;SDS011;5504;47.312;11.060;2024-01-25T14:23:17;3.13;;;2.83;;
10902;SDS011;5504;47.312;11.060;2024-01-25T14:25:43;4.57;;;2.97;;
10902;SDS011;5504;47.312;11.060;2024-01-25T14:28:10;3.30;;;3.00;;
10902;SDS011;5504;47.312;11.060;2024-01-25T14:30:36;4.43;;;3.57;;
10902;SDS011;5504;47.312;11.060;2024-01-25T14:33:02;3.90;;;3.40;;
10902;SDS011;5504;47.312;11.060;2024-01-25T14:35:28;6.10;;;4.87;;
10902;SDS011;5504;47.312;11.060;2024-01-25T14:37:55;5.50;;;4.90;;
10902;SDS011;5504;47.312;11.060;2024-01-25T14:40:21;5.80;;;4.70;;